sensor_id;sensor_type;location;lat;lon;timestamp;temperature;humidity
9223;DHT22;7557;51.698;3.942;2022-09-09T00:02:19;18.30;99.90
9223;DHT22;7557;51.698;3.942;2022-09-09T00:04:55;18.30;99.90
9223;DHT22;7557;51.698;3.942;2022-09-09T00:07:34;18.20;99.90
9223;DHT22;7557;51.698;3.942;2022-09-09T00:10:16;18.30;99.90
9223;DHT22;7557;51.698;3.942;2022-09-09T00:12:53;18.30;99.90
9223;DHT22;7557;51.698;3.942;2022-09-09T00:15:25;18.30;99.90
9223;DHT22;7557;51.698;3.942;2022-09-09T00:17:59;18.30;99.90
9223;DHT22;7557;51.698;3.942;2022-09-09T00:20:32;18.20;99.90
9223;DHT22;7557;51.698;3.942;2022-09-09T00:23:10;18.20;99.90
9223;DHT22;7557;51.698;3.942;2022-09-09T00:25:42;18.20;99.90
9223;DHT22;7557;51.698;3.942;2022-09-09T00:28:16;18.20;99.90
9223;DHT22;7557;51.698;3.942;2022-09-09T00:30:45;18.10;99.90
9223;DHT22;7557;51.698;3.942;2022-09-09T00:33:18;18.10;99.90
9223;DHT22;7557;51.698;3.942;2022-09-09T00:35:49;18.10;99.90
9223;DHT22;7557;51.698;3.942;2022-09-09T00:38:20;18.00;99.90
9223;DHT22;7557;51.698;3.942;2022-09-09T00:40:51;18.00;99.90
9223;DHT22;7557;51.698;3.942;2022-09-09T00:43:27;17.90;99.90
9223;DHT22;7557;51.698;3.942;2022-09-09T00:46:38;17.90;99.90
9223;DHT22;7557;51.698;3.942;2022-09-09T00:49:19;17.90;99.90
9223;DHT22;7557;51.698;3.942;2022-09-09T00:51:58;17.90;99.90
9223;DHT22;7557;51.698;3.942;2022-09-09T00:54:38;17.90;99.90
9223;DHT22;7557;51.698;3.942;2022-09-09T00:57:14;17.90;99.90
9223;DHT22;7557;51.698;3.942;2022-09-09T00:59:47;17.80;99.90
9223;DHT22;7557;51.698;3.942;2022-09-09T01:02:27;17.80;99.90
9223;DHT22;7557;51.698;3.942;2022-09-09T01:05:02;17.80;99.90
9223;DHT22;7557;51.698;3.942;2022-09-09T01:07:31;17.80;99.90
9223;DHT22;7557;51.698;3.942;2022-09-09T01:10:00;17.80;99.90
9223;DHT22;7557;51.698;3.942;2022-09-09T01:12:37;17.80;99.90
9223;DHT22;7557;51.698;3.942;2022-09-09T01:15:12;17.80;99.90
9223;DHT22;7557;51.698;3.942;2022-09-09T01:17:50;17.80;99.90
9223;DHT22;7557;51.698;3.942;2022-09-09T01:20:23;17.80;99.90
9223;DHT22;7557;51.698;3.942;2022-09-09T01:23:14;17.80;99.90
9223;DHT22;7557;51.698;3.942;2022-09-09T01:26:12;17.80;99.90
9223;DHT22;7557;51.698;3.942;2022-09-09T01:28:41;17.80;99.90
9223;DHT22;7557;51.698;3.942;2022-09-09T01:31:13;17.80;99.90
9223;DHT22;7557;51.698;3.942;2022-09-09T01:33:42;17.90;99.90
9223;DHT22;7557;51.698;3.942;2022-09-09T01:36:11;17.90;99.90
9223;DHT22;7557;51.698;3.942;2022-09-09T01:38:39;17.90;99.90
9223;DHT22;7557;51.698;3.942;2022-09-09T01:41:08;17.90;99.90
9223;DHT22;7557;51.698;3.942;2022-09-09T01:43:36;17.90;99.90
9223;DHT22;7557;51.698;3.942;2022-09-09T01:46:04;17.90;99.90
9223;DHT22;7557;51.698;3.942;2022-09-09T01:48:32;17.90;99.90
9223;DHT22;7557;51.698;3.942;2022-09-09T01:50:59;17.90;99.90
9223;DHT22;7557;51.698;3.942;2022-09-09T01:53:27;17.80;99.90
9223;DHT22;7557;51.698;3.942;2022-09-09T01:56:05;17.80;99.90
9223;DHT22;7557;51.698;3.942;2022-09-09T01:58:45;17.90;99.90
9223;DHT22;7557;51.698;3.942;2022-09-09T02:01:21;17.80;99.90
9223;DHT22;7557;51.698;3.942;2022-09-09T02:03:53;17.80;99.90
9223;DHT22;7557;51.698;3.942;2022-09-09T02:06:27;17.70;99.90
9223;DHT22;7557;51.698;3.942;2022-09-09T02:08:56;17.70;99.90
9223;DHT22;7557;51.698;3.942;2022-09-09T02:11:27;17.60;99.90
9223;DHT22;7557;51.698;3.942;2022-09-09T02:13:59;17.60;99.90
9223;DHT22;7557;51.698;3.942;2022-09-09T02:16:32;17.60;99.90
9223;DHT22;7557;51.698;3.942;2022-09-09T02:19:06;17.60;99.90
9223;DHT22;7557;51.698;3.942;2022-09-09T02:21:35;17.60;99.90
9223;DHT22;7557;51.698;3.942;2022-09-09T02:24:05;17.50;99.90
9223;DHT22;7557;51.698;3.942;2022-09-09T02:26:37;17.50;99.90
9223;DHT22;7557;51.698;3.942;2022-09-09T02:29:11;17.50;99.90
9223;DHT22;7557;51.698;3.942;2022-09-09T02:31:41;17.50;99.90
9223;DHT22;7557;51.698;3.942;2022-09-09T02:34:10;17.50;99.90
9223;DHT22;7557;51.698;3.942;2022-09-09T02:36:40;17.50;99.90
9223;DHT22;7557;51.698;3.942;2022-09-09T02:39:10;17.50;99.90
9223;DHT22;7557;51.698;3.942;2022-09-09T02:41:40;17.50;99.90
9223;DHT22;7557;51.698;3.942;2022-09-09T02:44:12;17.40;99.90
9223;DHT22;7557;51.698;3.942;2022-09-09T02:46:57;17.40;99.90
9223;DHT22;7557;51.698;3.942;2022-09-09T02:49:32;17.40;99.90
9223;DHT22;7557;51.698;3.942;2022-09-09T02:52:06;17.40;99.90
9223;DHT22;7557;51.698;3.942;2022-09-09T02:54:36;17.30;99.90
9223;DHT22;7557;51.698;3.942;2022-09-09T02:57:08;17.40;99.90
9223;DHT22;7557;51.698;3.942;2022-09-09T02:59:39;17.40;99.90
9223;DHT22;7557;51.698;3.942;2022-09-09T03:02:07;17.30;99.90
9223;DHT22;7557;51.698;3.942;2022-09-09T03:04:35;17.30;99.90
9223;DHT22;7557;51.698;3.942;2022-09-09T03:07:03;17.30;99.90
9223;DHT22;7557;51.698;3.942;2022-09-09T03:09:31;17.20;99.90
9223;DHT22;7557;51.698;3.942;2022-09-09T03:11:59;17.20;99.90
9223;DHT22;7557;51.698;3.942;2022-09-09T03:14:26;17.20;99.90
9223;DHT22;7557;51.698;3.942;2022-09-09T03:16:55;17.20;99.90
9223;DHT22;7557;51.698;3.942;2022-09-09T03:19:23;17.20;99.90
9223;DHT22;7557;51.698;3.942;2022-09-09T03:21:51;17.10;99.90
9223;DHT22;7557;51.698;3.942;2022-09-09T03:24:19;17.10;99.90
9223;DHT22;7557;51.698;3.942;2022-09-09T03:26:47;17.10;99.90
9223;DHT22;7557;51.698;3.942;2022-09-09T03:29:14;17.10;99.90
9223;DHT22;7557;51.698;3.942;2022-09-09T03:31:42;17.10;99.90
9223;DHT22;7557;51.698;3.942;2022-09-09T03:34:12;17.10;99.90
9223;DHT22;7557;51.698;3.942;2022-09-09T03:36:40;17.10;99.90
9223;DHT22;7557;51.698;3.942;2022-09-09T03:39:08;17.10;99.90
9223;DHT22;7557;51.698;3.942;2022-09-09T03:41:35;17.10;99.90
9223;DHT22;7557;51.698;3.942;2022-09-09T03:44:03;17.10;99.90
9223;DHT22;7557;51.698;3.942;2022-09-09T03:46:30;17.10;99.90
9223;DHT22;7557;51.698;3.942;2022-09-09T03:48:58;17.10;99.90
9223;DHT22;7557;51.698;3.942;2022-09-09T03:51:29;17.10;99.90
9223;DHT22;7557;51.698;3.942;2022-09-09T03:53:57;17.10;99.90
9223;DHT22;7557;51.698;3.942;2022-09-09T03:56:24;17.10;99.90
9223;DHT22;7557;51.698;3.942;2022-09-09T03:58:52;17.10;99.90
9223;DHT22;7557;51.698;3.942;2022-09-09T04:01:19;17.10;99.90
9223;DHT22;7557;51.698;3.942;2022-09-09T04:03:47;17.10;99.90
9223;DHT22;7557;51.698;3.942;2022-09-09T04:06:14;17.10;99.90
9223;DHT22;7557;51.698;3.942;2022-09-09T04:08:44;17.10;99.90
9223;DHT22;7557;51.698;3.942;2022-09-09T04:11:14;17.00;99.90
9223;DHT22;7557;51.698;3.942;2022-09-09T04:13:42;17.00;99.90
9223;DHT22;7557;51.698;3.942;2022-09-09T04:16:11;17.00;99.90
9223;DHT22;7557;51.698;3.942;2022-09-09T04:18:39;17.00;99.90
9223;DHT22;7557;51.698;3.942;2022-09-09T04:21:06;16.90;99.90
9223;DHT22;7557;51.698;3.942;2022-09-09T04:23:34;16.90;99.90
9223;DHT22;7557;51.698;3.942;2022-09-09T04:26:03;16.90;99.90
9223;DHT22;7557;51.698;3.942;2022-09-09T04:28:33;16.90;99.90
9223;DHT22;7557;51.698;3.942;2022-09-09T04:31:05;16.90;99.90
9223;DHT22;7557;51.698;3.942;2022-09-09T04:33:33;16.90;99.90
9223;DHT22;7557;51.698;3.942;2022-09-09T04:36:01;16.90;99.90
9223;DHT22;7557;51.698;3.942;2022-09-09T04:38:29;16.90;99.90
9223;DHT22;7557;51.698;3.942;2022-09-09T04:40:56;16.90;99.90
9223;DHT22;7557;51.698;3.942;2022-09-09T04:43:25;16.90;99.90
9223;DHT22;7557;51.698;3.942;2022-09-09T04:45:53;16.90;99.90
9223;DHT22;7557;51.698;3.942;2022-09-09T04:48:21;17.00;99.90
9223;DHT22;7557;51.698;3.942;2022-09-09T04:50:57;17.00;99.90
9223;DHT22;7557;51.698;3.942;2022-09-09T04:53:25;17.00;99.90
9223;DHT22;7557;51.698;3.942;2022-09-09T04:56:00;17.00;99.90
9223;DHT22;7557;51.698;3.942;2022-09-09T04:58:29;17.00;99.90
9223;DHT22;7557;51.698;3.942;2022-09-09T05:01:04;17.10;99.90
9223;DHT22;7557;51.698;3.942;2022-09-09T05:03:31;17.10;99.90
9223;DHT22;7557;51.698;3.942;2022-09-09T05:06:03;17.10;99.90
9223;DHT22;7557;51.698;3.942;2022-09-09T05:08:31;17.10;99.90
9223;DHT22;7557;51.698;3.942;2022-09-09T05:10:59;17.10;99.90
9223;DHT22;7557;51.698;3.942;2022-09-09T05:13:26;17.10;99.90
9223;DHT22;7557;51.698;3.942;2022-09-09T05:15:56;17.10;99.90
9223;DHT22;7557;51.698;3.942;2022-09-09T05:18:23;17.10;99.90
9223;DHT22;7557;51.698;3.942;2022-09-09T05:20:51;17.10;99.90
9223;DHT22;7557;51.698;3.942;2022-09-09T05:23:18;17.10;99.90
9223;DHT22;7557;51.698;3.942;2022-09-09T05:25:57;17.10;99.90
9223;DHT22;7557;51.698;3.942;2022-09-09T05:28:25;17.10;99.90
9223;DHT22;7557;51.698;3.942;2022-09-09T05:30:58;17.10;99.90
9223;DHT22;7557;51.698;3.942;2022-09-09T05:33:26;17.20;99.90
9223;DHT22;7557;51.698;3.942;2022-09-09T05:35:58;17.20;99.90
9223;DHT22;7557;51.698;3.942;2022-09-09T05:38:26;17.20;99.90
9223;DHT22;7557;51.698;3.942;2022-09-09T05:40:53;17.20;99.90
9223;DHT22;7557;51.698;3.942;2022-09-09T05:43:22;17.20;99.90
9223;DHT22;7557;51.698;3.942;2022-09-09T05:46:00;17.30;99.90
9223;DHT22;7557;51.698;3.942;2022-09-09T05:48:29;17.30;99.90
9223;DHT22;7557;51.698;3.942;2022-09-09T05:50:58;17.20;99.90
9223;DHT22;7557;51.698;3.942;2022-09-09T05:53:26;17.20;99.90
9223;DHT22;7557;51.698;3.942;2022-09-09T05:56:01;17.20;99.90
9223;DHT22;7557;51.698;3.942;2022-09-09T05:58:30;17.20;99.90
9223;DHT22;7557;51.698;3.942;2022-09-09T06:01:04;17.20;99.90
9223;DHT22;7557;51.698;3.942;2022-09-09T06:03:32;17.20;99.90
9223;DHT22;7557;51.698;3.942;2022-09-09T06:06:01;17.20;99.90
9223;DHT22;7557;51.698;3.942;2022-09-09T06:08:30;17.20;99.90
9223;DHT22;7557;51.698;3.942;2022-09-09T06:11:02;17.20;99.90
9223;DHT22;7557;51.698;3.942;2022-09-09T06:13:30;17.20;99.90
9223;DHT22;7557;51.698;3.942;2022-09-09T06:15:58;17.30;99.90
9223;DHT22;7557;51.698;3.942;2022-09-09T06:18:27;17.30;99.90
9223;DHT22;7557;51.698;3.942;2022-09-09T06:20:56;17.30;99.90
9223;DHT22;7557;51.698;3.942;2022-09-09T06:23:24;17.30;99.90
9223;DHT22;7557;51.698;3.942;2022-09-09T06:25:51;17.30;99.90
9223;DHT22;7557;51.698;3.942;2022-09-09T06:28:19;17.30;99.90
9223;DHT22;7557;51.698;3.942;2022-09-09T06:30:46;17.30;99.90
9223;DHT22;7557;51.698;3.942;2022-09-09T06:33:14;17.30;99.90
9223;DHT22;7557;51.698;3.942;2022-09-09T06:35:43;17.40;99.90
9223;DHT22;7557;51.698;3.942;2022-09-09T06:38:19;17.40;99.90
9223;DHT22;7557;51.698;3.942;2022-09-09T06:40:51;17.40;99.90
9223;DHT22;7557;51.698;3.942;2022-09-09T06:43:20;17.40;99.90
9223;DHT22;7557;51.698;3.942;2022-09-09T06:45:54;17.50;99.90
9223;DHT22;7557;51.698;3.942;2022-09-09T06:48:21;17.50;99.90
9223;DHT22;7557;51.698;3.942;2022-09-09T06:50:50;17.50;99.90
9223;DHT22;7557;51.698;3.942;2022-09-09T06:53:18;17.60;99.90
9223;DHT22;7557;51.698;3.942;2022-09-09T06:55:46;17.60;99.90
9223;DHT22;7557;51.698;3.942;2022-09-09T06:58:13;17.60;99.90
9223;DHT22;7557;51.698;3.942;2022-09-09T07:00:41;17.60;99.90
9223;DHT22;7557;51.698;3.942;2022-09-09T07:03:09;17.60;99.90
9223;DHT22;7557;51.698;3.942;2022-09-09T07:05:37;17.70;99.90
9223;DHT22;7557;51.698;3.942;2022-09-09T07:08:06;17.70;99.90
9223;DHT22;7557;51.698;3.942;2022-09-09T07:10:34;17.70;99.90
9223;DHT22;7557;51.698;3.942;2022-09-09T07:13:01;17.70;99.90
9223;DHT22;7557;51.698;3.942;2022-09-09T07:15:30;17.70;99.90
9223;DHT22;7557;51.698;3.942;2022-09-09T07:18:01;17.80;99.90
9223;DHT22;7557;51.698;3.942;2022-09-09T07:20:29;17.80;99.90
9223;DHT22;7557;51.698;3.942;2022-09-09T07:22:56;17.80;99.90
9223;DHT22;7557;51.698;3.942;2022-09-09T07:25:26;17.80;99.90
9223;DHT22;7557;51.698;3.942;2022-09-09T07:27:54;17.80;99.90
9223;DHT22;7557;51.698;3.942;2022-09-09T07:30:23;17.80;99.90
9223;DHT22;7557;51.698;3.942;2022-09-09T07:32:51;17.80;99.90
9223;DHT22;7557;51.698;3.942;2022-09-09T07:35:18;17.80;99.90
9223;DHT22;7557;51.698;3.942;2022-09-09T07:37:46;17.90;99.90
9223;DHT22;7557;51.698;3.942;2022-09-09T07:40:13;17.90;99.90
9223;DHT22;7557;51.698;3.942;2022-09-09T07:42:43;17.80;99.90
9223;DHT22;7557;51.698;3.942;2022-09-09T07:45:11;17.90;99.90
9223;DHT22;7557;51.698;3.942;2022-09-09T07:47:38;17.90;99.90
9223;DHT22;7557;51.698;3.942;2022-09-09T07:50:07;17.90;99.90
9223;DHT22;7557;51.698;3.942;2022-09-09T07:52:35;17.90;99.90
9223;DHT22;7557;51.698;3.942;2022-09-09T07:55:03;18.00;99.90
9223;DHT22;7557;51.698;3.942;2022-09-09T07:57:32;18.10;99.90
9223;DHT22;7557;51.698;3.942;2022-09-09T08:00:01;18.10;99.90
9223;DHT22;7557;51.698;3.942;2022-09-09T08:02:28;18.10;99.90
9223;DHT22;7557;51.698;3.942;2022-09-09T08:04:56;18.20;99.90
9223;DHT22;7557;51.698;3.942;2022-09-09T08:07:23;18.10;99.90
9223;DHT22;7557;51.698;3.942;2022-09-09T08:09:50;18.10;99.90
9223;DHT22;7557;51.698;3.942;2022-09-09T08:12:18;18.20;99.90
9223;DHT22;7557;51.698;3.942;2022-09-09T08:14:46;18.20;99.90
9223;DHT22;7557;51.698;3.942;2022-09-09T08:17:15;18.20;99.90
9223;DHT22;7557;51.698;3.942;2022-09-09T08:19:43;18.20;99.90
9223;DHT22;7557;51.698;3.942;2022-09-09T08:22:11;18.20;99.90
9223;DHT22;7557;51.698;3.942;2022-09-09T08:24:38;18.20;99.90
9223;DHT22;7557;51.698;3.942;2022-09-09T08:27:06;18.20;99.90
9223;DHT22;7557;51.698;3.942;2022-09-09T08:29:35;18.30;99.90
9223;DHT22;7557;51.698;3.942;2022-09-09T08:32:03;18.20;99.90
9223;DHT22;7557;51.698;3.942;2022-09-09T08:34:32;18.10;99.90
9223;DHT22;7557;51.698;3.942;2022-09-09T08:37:00;18.10;99.90
9223;DHT22;7557;51.698;3.942;2022-09-09T08:39:27;18.10;99.90
9223;DHT22;7557;51.698;3.942;2022-09-09T08:45:05;18.10;99.90
9223;DHT22;7557;51.698;3.942;2022-09-09T08:47:44;18.10;99.90
9223;DHT22;7557;51.698;3.942;2022-09-09T08:50:21;18.10;99.90
9223;DHT22;7557;51.698;3.942;2022-09-09T08:52:54;18.10;99.90
9223;DHT22;7557;51.698;3.942;2022-09-09T08:55:28;18.10;99.90
9223;DHT22;7557;51.698;3.942;2022-09-09T08:58:05;18.10;99.90
9223;DHT22;7557;51.698;3.942;2022-09-09T09:00:39;18.20;99.90
9223;DHT22;7557;51.698;3.942;2022-09-09T09:03:15;18.20;99.90
9223;DHT22;7557;51.698;3.942;2022-09-09T09:05:54;18.20;99.90
9223;DHT22;7557;51.698;3.942;2022-09-09T09:08:29;18.20;99.90
9223;DHT22;7557;51.698;3.942;2022-09-09T09:10:59;18.10;99.90
9223;DHT22;7557;51.698;3.942;2022-09-09T09:13:32;18.10;99.90
9223;DHT22;7557;51.698;3.942;2022-09-09T09:16:10;18.10;99.90
9223;DHT22;7557;51.698;3.942;2022-09-09T09:18:40;18.00;99.90
9223;DHT22;7557;51.698;3.942;2022-09-09T09:21:13;17.90;99.90
9223;DHT22;7557;51.698;3.942;2022-09-09T09:23:45;18.00;99.90
9223;DHT22;7557;51.698;3.942;2022-09-09T09:26:17;18.00;99.90
9223;DHT22;7557;51.698;3.942;2022-09-09T09:28:45;18.10;99.90
9223;DHT22;7557;51.698;3.942;2022-09-09T09:31:13;18.10;99.90
9223;DHT22;7557;51.698;3.942;2022-09-09T09:33:46;18.20;99.90
9223;DHT22;7557;51.698;3.942;2022-09-09T09:36:17;18.40;99.90
9223;DHT22;7557;51.698;3.942;2022-09-09T09:38:55;18.50;99.90
9223;DHT22;7557;51.698;3.942;2022-09-09T09:41:31;18.60;99.90
9223;DHT22;7557;51.698;3.942;2022-09-09T09:44:00;18.60;99.90
9223;DHT22;7557;51.698;3.942;2022-09-09T09:46:28;18.60;99.90
9223;DHT22;7557;51.698;3.942;2022-09-09T09:49:00;18.60;99.90
9223;DHT22;7557;51.698;3.942;2022-09-09T09:51:30;18.60;99.90
9223;DHT22;7557;51.698;3.942;2022-09-09T09:54:14;18.60;99.90
9223;DHT22;7557;51.698;3.942;2022-09-09T09:56:43;18.60;99.90
9223;DHT22;7557;51.698;3.942;2022-09-09T09:59:21;18.60;99.90
9223;DHT22;7557;51.698;3.942;2022-09-09T10:01:49;18.60;99.90
9223;DHT22;7557;51.698;3.942;2022-09-09T10:04:19;18.70;99.90
9223;DHT22;7557;51.698;3.942;2022-09-09T10:06:50;18.70;99.90
9223;DHT22;7557;51.698;3.942;2022-09-09T10:09:22;18.70;99.90
9223;DHT22;7557;51.698;3.942;2022-09-09T10:11:57;18.80;99.90
9223;DHT22;7557;51.698;3.942;2022-09-09T10:14:31;18.90;99.90
9223;DHT22;7557;51.698;3.942;2022-09-09T10:17:11;19.00;99.90
9223;DHT22;7557;51.698;3.942;2022-09-09T10:19:44;19.20;99.90
9223;DHT22;7557;51.698;3.942;2022-09-09T10:22:28;19.40;99.90
9223;DHT22;7557;51.698;3.942;2022-09-09T10:25:26;19.60;99.90
9223;DHT22;7557;51.698;3.942;2022-09-09T10:28:17;19.70;99.90
9223;DHT22;7557;51.698;3.942;2022-09-09T10:31:02;19.70;99.90
9223;DHT22;7557;51.698;3.942;2022-09-09T10:33:44;19.70;99.90
9223;DHT22;7557;51.698;3.942;2022-09-09T10:36:19;19.70;99.90
9223;DHT22;7557;51.698;3.942;2022-09-09T10:38:53;19.60;99.90
9223;DHT22;7557;51.698;3.942;2022-09-09T10:41:38;19.50;99.90
9223;DHT22;7557;51.698;3.942;2022-09-09T10:44:17;19.40;99.90
9223;DHT22;7557;51.698;3.942;2022-09-09T10:47:04;19.30;99.90
9223;DHT22;7557;51.698;3.942;2022-09-09T10:49:52;19.10;99.90
9223;DHT22;7557;51.698;3.942;2022-09-09T10:52:30;19.00;99.90
9223;DHT22;7557;51.698;3.942;2022-09-09T10:55:09;18.80;99.90
9223;DHT22;7557;51.698;3.942;2022-09-09T10:57:39;18.70;99.90
9223;DHT22;7557;51.698;3.942;2022-09-09T11:00:16;18.70;99.90
9223;DHT22;7557;51.698;3.942;2022-09-09T11:02:46;18.70;99.90
9223;DHT22;7557;51.698;3.942;2022-09-09T11:05:19;18.70;99.90
9223;DHT22;7557;51.698;3.942;2022-09-09T11:07:49;18.60;99.90
9223;DHT22;7557;51.698;3.942;2022-09-09T11:10:24;18.60;99.90
9223;DHT22;7557;51.698;3.942;2022-09-09T11:12:57;18.60;99.90
9223;DHT22;7557;51.698;3.942;2022-09-09T11:15:31;18.60;99.90
9223;DHT22;7557;51.698;3.942;2022-09-09T11:18:04;18.60;99.90
9223;DHT22;7557;51.698;3.942;2022-09-09T11:20:34;18.60;99.90
9223;DHT22;7557;51.698;3.942;2022-09-09T11:23:04;18.60;99.90
9223;DHT22;7557;51.698;3.942;2022-09-09T11:25:37;18.50;99.90
9223;DHT22;7557;51.698;3.942;2022-09-09T11:28:32;18.50;99.90
9223;DHT22;7557;51.698;3.942;2022-09-09T11:31:16;18.50;99.90
9223;DHT22;7557;51.698;3.942;2022-09-09T11:34:12;18.50;99.90
9223;DHT22;7557;51.698;3.942;2022-09-09T11:40:09;18.40;99.90
9223;DHT22;7557;51.698;3.942;2022-09-09T11:42:42;18.40;99.90
9223;DHT22;7557;51.698;3.942;2022-09-09T11:45:22;18.40;99.90
9223;DHT22;7557;51.698;3.942;2022-09-09T11:47:53;18.50;99.90
9223;DHT22;7557;51.698;3.942;2022-09-09T11:50:35;18.40;99.90
9223;DHT22;7557;51.698;3.942;2022-09-09T11:53:22;18.50;99.90
9223;DHT22;7557;51.698;3.942;2022-09-09T11:56:08;18.50;99.90
9223;DHT22;7557;51.698;3.942;2022-09-09T11:58:43;18.50;99.90
9223;DHT22;7557;51.698;3.942;2022-09-09T12:01:35;18.50;99.90
9223;DHT22;7557;51.698;3.942;2022-09-09T12:04:34;18.40;99.90
9223;DHT22;7557;51.698;3.942;2022-09-09T12:07:05;18.40;99.90
9223;DHT22;7557;51.698;3.942;2022-09-09T12:09:50;18.50;99.90
9223;DHT22;7557;51.698;3.942;2022-09-09T12:12:26;18.40;99.90
9223;DHT22;7557;51.698;3.942;2022-09-09T12:18:01;18.40;99.90
9223;DHT22;7557;51.698;3.942;2022-09-09T12:20:33;18.40;99.90
9223;DHT22;7557;51.698;3.942;2022-09-09T12:23:31;18.40;99.90
9223;DHT22;7557;51.698;3.942;2022-09-09T12:26:07;18.40;99.90
9223;DHT22;7557;51.698;3.942;2022-09-09T12:28:51;18.40;99.90
9223;DHT22;7557;51.698;3.942;2022-09-09T12:31:23;18.40;99.90
9223;DHT22;7557;51.698;3.942;2022-09-09T12:33:53;18.40;99.90
9223;DHT22;7557;51.698;3.942;2022-09-09T12:36:23;18.40;99.90
9223;DHT22;7557;51.698;3.942;2022-09-09T12:38:51;18.40;99.90
9223;DHT22;7557;51.698;3.942;2022-09-09T12:41:21;18.50;99.90
9223;DHT22;7557;51.698;3.942;2022-09-09T12:43:50;18.60;99.90
9223;DHT22;7557;51.698;3.942;2022-09-09T12:46:33;18.70;99.90
9223;DHT22;7557;51.698;3.942;2022-09-09T12:49:05;18.90;99.90
9223;DHT22;7557;51.698;3.942;2022-09-09T12:51:33;19.10;99.90
9223;DHT22;7557;51.698;3.942;2022-09-09T12:54:01;19.30;99.90
9223;DHT22;7557;51.698;3.942;2022-09-09T12:56:30;19.40;99.90
9223;DHT22;7557;51.698;3.942;2022-09-09T12:58:58;19.40;99.90
9223;DHT22;7557;51.698;3.942;2022-09-09T13:01:28;19.30;99.90
9223;DHT22;7557;51.698;3.942;2022-09-09T13:03:57;19.20;99.90
9223;DHT22;7557;51.698;3.942;2022-09-09T13:06:27;19.10;99.90
9223;DHT22;7557;51.698;3.942;2022-09-09T13:08:56;19.10;99.90
9223;DHT22;7557;51.698;3.942;2022-09-09T13:11:26;19.00;99.90
9223;DHT22;7557;51.698;3.942;2022-09-09T13:13:57;18.90;99.90
9223;DHT22;7557;51.698;3.942;2022-09-09T13:16:28;18.70;99.90
9223;DHT22;7557;51.698;3.942;2022-09-09T13:18:58;18.50;99.90
9223;DHT22;7557;51.698;3.942;2022-09-09T13:21:36;18.40;99.90
9223;DHT22;7557;51.698;3.942;2022-09-09T13:24:05;18.30;99.90
9223;DHT22;7557;51.698;3.942;2022-09-09T13:26:36;18.30;99.90
9223;DHT22;7557;51.698;3.942;2022-09-09T13:29:16;18.30;99.90
9223;DHT22;7557;51.698;3.942;2022-09-09T13:31:47;18.40;99.90
9223;DHT22;7557;51.698;3.942;2022-09-09T13:34:26;18.30;99.90
9223;DHT22;7557;51.698;3.942;2022-09-09T13:36:59;18.40;99.90
9223;DHT22;7557;51.698;3.942;2022-09-09T13:39:28;18.50;99.90
9223;DHT22;7557;51.698;3.942;2022-09-09T13:41:56;18.50;99.90
9223;DHT22;7557;51.698;3.942;2022-09-09T13:44:26;18.60;99.90
9223;DHT22;7557;51.698;3.942;2022-09-09T13:47:02;18.60;99.90
9223;DHT22;7557;51.698;3.942;2022-09-09T13:49:31;18.60;99.90
9223;DHT22;7557;51.698;3.942;2022-09-09T13:52:10;18.60;99.90
9223;DHT22;7557;51.698;3.942;2022-09-09T13:54:38;18.60;99.90
9223;DHT22;7557;51.698;3.942;2022-09-09T13:57:15;18.50;99.90
9223;DHT22;7557;51.698;3.942;2022-09-09T13:59:44;18.50;99.90
9223;DHT22;7557;51.698;3.942;2022-09-09T14:02:11;18.60;99.90
9223;DHT22;7557;51.698;3.942;2022-09-09T14:04:38;18.60;99.90
9223;DHT22;7557;51.698;3.942;2022-09-09T14:07:11;18.70;99.90
9223;DHT22;7557;51.698;3.942;2022-09-09T14:09:39;18.80;99.90
9223;DHT22;7557;51.698;3.942;2022-09-09T14:12:09;18.80;99.90
9223;DHT22;7557;51.698;3.942;2022-09-09T14:14:36;18.90;99.90
9223;DHT22;7557;51.698;3.942;2022-09-09T14:17:04;18.90;99.90
9223;DHT22;7557;51.698;3.942;2022-09-09T14:19:32;18.90;99.90
9223;DHT22;7557;51.698;3.942;2022-09-09T14:22:00;18.90;99.90
9223;DHT22;7557;51.698;3.942;2022-09-09T14:24:29;19.00;99.90
9223;DHT22;7557;51.698;3.942;2022-09-09T14:26:56;19.10;99.90
9223;DHT22;7557;51.698;3.942;2022-09-09T14:29:23;19.20;99.90
9223;DHT22;7557;51.698;3.942;2022-09-09T14:31:52;19.40;99.90
9223;DHT22;7557;51.698;3.942;2022-09-09T14:34:19;19.50;99.90
9223;DHT22;7557;51.698;3.942;2022-09-09T14:36:47;19.50;99.90
9223;DHT22;7557;51.698;3.942;2022-09-09T14:39:14;19.50;99.90
9223;DHT22;7557;51.698;3.942;2022-09-09T14:41:43;19.40;99.90
9223;DHT22;7557;51.698;3.942;2022-09-09T14:44:11;19.40;99.90
9223;DHT22;7557;51.698;3.942;2022-09-09T14:46:38;19.30;99.90
9223;DHT22;7557;51.698;3.942;2022-09-09T14:49:08;19.30;99.90
9223;DHT22;7557;51.698;3.942;2022-09-09T14:51:36;19.30;99.90
9223;DHT22;7557;51.698;3.942;2022-09-09T14:54:03;19.20;99.90
9223;DHT22;7557;51.698;3.942;2022-09-09T14:56:33;19.20;99.90
9223;DHT22;7557;51.698;3.942;2022-09-09T14:59:03;19.10;99.90
9223;DHT22;7557;51.698;3.942;2022-09-09T15:01:31;19.10;99.90
9223;DHT22;7557;51.698;3.942;2022-09-09T15:04:01;19.10;99.90
9223;DHT22;7557;51.698;3.942;2022-09-09T15:06:30;19.20;99.90
9223;DHT22;7557;51.698;3.942;2022-09-09T15:08:59;19.40;99.90
9223;DHT22;7557;51.698;3.942;2022-09-09T15:11:28;19.50;99.90
9223;DHT22;7557;51.698;3.942;2022-09-09T15:13:58;19.70;99.90
9223;DHT22;7557;51.698;3.942;2022-09-09T15:16:28;19.70;99.90
9223;DHT22;7557;51.698;3.942;2022-09-09T15:18:56;19.80;99.90
9223;DHT22;7557;51.698;3.942;2022-09-09T15:21:25;19.80;99.90
9223;DHT22;7557;51.698;3.942;2022-09-09T15:23:53;19.80;99.90
9223;DHT22;7557;51.698;3.942;2022-09-09T15:26:21;19.70;99.90
9223;DHT22;7557;51.698;3.942;2022-09-09T15:28:49;19.70;99.90
9223;DHT22;7557;51.698;3.942;2022-09-09T15:31:18;19.70;99.90
9223;DHT22;7557;51.698;3.942;2022-09-09T15:33:52;19.70;99.90
9223;DHT22;7557;51.698;3.942;2022-09-09T15:36:20;19.70;99.90
9223;DHT22;7557;51.698;3.942;2022-09-09T15:38:48;19.70;99.90
9223;DHT22;7557;51.698;3.942;2022-09-09T15:41:16;19.70;99.90
9223;DHT22;7557;51.698;3.942;2022-09-09T15:43:44;19.80;99.90
9223;DHT22;7557;51.698;3.942;2022-09-09T15:46:24;19.80;99.90
9223;DHT22;7557;51.698;3.942;2022-09-09T15:48:55;19.90;99.90
9223;DHT22;7557;51.698;3.942;2022-09-09T15:51:24;20.00;99.90
9223;DHT22;7557;51.698;3.942;2022-09-09T15:53:54;20.00;99.90
9223;DHT22;7557;51.698;3.942;2022-09-09T15:56:22;20.10;99.90
9223;DHT22;7557;51.698;3.942;2022-09-09T15:58:50;20.10;99.90
9223;DHT22;7557;51.698;3.942;2022-09-09T16:01:18;20.10;99.90
9223;DHT22;7557;51.698;3.942;2022-09-09T16:03:46;20.10;99.90
9223;DHT22;7557;51.698;3.942;2022-09-09T16:06:18;20.10;99.90
9223;DHT22;7557;51.698;3.942;2022-09-09T16:08:49;20.10;99.90
9223;DHT22;7557;51.698;3.942;2022-09-09T16:11:18;20.00;99.90
9223;DHT22;7557;51.698;3.942;2022-09-09T16:13:47;20.00;99.90
9223;DHT22;7557;51.698;3.942;2022-09-09T16:16:17;19.90;99.90
9223;DHT22;7557;51.698;3.942;2022-09-09T16:18:47;20.00;99.90
9223;DHT22;7557;51.698;3.942;2022-09-09T16:21:18;20.00;99.90
9223;DHT22;7557;51.698;3.942;2022-09-09T16:23:45;20.00;99.90
9223;DHT22;7557;51.698;3.942;2022-09-09T16:26:15;19.90;99.90
9223;DHT22;7557;51.698;3.942;2022-09-09T16:28:43;20.00;99.90
9223;DHT22;7557;51.698;3.942;2022-09-09T16:31:14;20.00;99.90
9223;DHT22;7557;51.698;3.942;2022-09-09T16:33:43;20.00;99.90
9223;DHT22;7557;51.698;3.942;2022-09-09T16:36:12;20.00;99.90
9223;DHT22;7557;51.698;3.942;2022-09-09T16:38:42;19.90;99.90
9223;DHT22;7557;51.698;3.942;2022-09-09T16:41:11;19.90;99.90